createdAt,value
2023-04-14T00:00:06.453Z,9.50
2023-04-14T00:02:41.091Z,9.50
2023-04-14T00:05:10.125Z,9.50
2023-04-14T00:07:38.152Z,9.50
2023-04-14T00:10:08.302Z,9.40
2023-04-14T00:12:36.623Z,9.50
2023-04-14T00:15:05.164Z,9.50
2023-04-14T00:17:33.295Z,9.50
2023-04-14T00:20:01.324Z,9.50
2023-04-14T00:22:29.367Z,9.40
2023-04-14T00:24:57.355Z,9.40
2023-04-14T00:27:26.766Z,9.40
2023-04-14T00:29:54.820Z,9.40
2023-04-14T00:32:22.847Z,9.40
2023-04-14T00:34:50.907Z,9.50
2023-04-14T00:37:19.150Z,9.40
2023-04-14T00:39:47.195Z,9.40
2023-04-14T00:42:15.283Z,9.40
2023-04-14T00:44:44.733Z,9.40
2023-04-14T00:47:12.766Z,9.40
2023-04-14T00:49:41.085Z,9.40
2023-04-14T00:52:09.223Z,9.30
2023-04-14T00:54:39.152Z,9.30
2023-04-14T00:57:07.481Z,9.30
2023-04-14T00:59:35.824Z,9.20
2023-04-14T01:02:05.326Z,9.20
2023-04-14T01:04:45.153Z,9.10
2023-04-14T01:07:21.589Z,9.00
2023-04-14T01:09:50.198Z,9.30
2023-04-14T01:12:33.560Z,9.20
2023-04-14T01:15:12.488Z,9.20
2023-04-14T01:17:50.746Z,9.10
2023-04-14T01:20:28.090Z,9.10
2023-04-14T01:23:09.362Z,9.00
2023-04-14T01:26:07.744Z,9.00
2023-04-14T01:28:49.309Z,9.20
2023-04-14T01:31:25.075Z,9.20
2023-04-14T01:33:58.621Z,9.20
2023-04-14T01:36:35.540Z,9.20
2023-04-14T01:39:09.220Z,9.20
2023-04-14T01:41:40.552Z,9.10
2023-04-14T01:44:10.653Z,9.10
2023-04-14T01:46:42.476Z,9.00
2023-04-14T01:49:12.103Z,8.90
2023-04-14T01:51:43.186Z,8.90
2023-04-14T01:54:15.570Z,9.00
2023-04-14T01:56:45.059Z,9.00
2023-04-14T01:59:14.545Z,8.90
2023-04-14T02:01:46.639Z,8.90
2023-04-14T02:04:16.477Z,8.80
2023-04-14T02:06:44.943Z,8.80
2023-04-14T02:09:14.444Z,8.70
2023-04-14T02:11:43.825Z,8.70
2023-04-14T02:14:13.348Z,8.80
2023-04-14T02:16:42.153Z,8.90
2023-04-14T02:19:12.053Z,8.90
2023-04-14T02:21:41.396Z,8.90
2023-04-14T02:24:10.292Z,8.90
2023-04-14T02:26:45.091Z,9.00
2023-04-14T02:29:16.251Z,8.90
2023-04-14T02:31:50.522Z,8.80
2023-04-14T02:34:24.862Z,8.70
2023-04-14T02:36:56.380Z,8.60
2023-04-14T02:39:30.584Z,8.50
2023-04-14T02:42:03.103Z,8.60
2023-04-14T02:44:36.650Z,8.70
2023-04-14T02:47:07.667Z,8.70
2023-04-14T02:49:44.289Z,8.60
2023-04-14T02:52:14.941Z,8.50
2023-04-14T02:54:44.442Z,8.50
2023-04-14T02:57:13.806Z,8.60
2023-04-14T02:59:48.483Z,8.50
2023-04-14T03:02:19.682Z,8.50
2023-04-14T03:04:56.702Z,8.50
2023-04-14T03:07:49.902Z,8.50
2023-04-14T03:10:19.997Z,8.40
2023-04-14T03:12:49.847Z,8.40
2023-04-14T03:15:19.303Z,8.40
2023-04-14T03:17:53.944Z,8.40
2023-04-14T03:20:24.240Z,8.40
2023-04-14T03:22:58.263Z,8.20
2023-04-14T03:25:29.233Z,8.20
2023-04-14T03:28:02.033Z,8.20
2023-04-14T03:30:32.785Z,8.20
2023-04-14T03:33:06.055Z,8.10
2023-04-14T03:35:37.201Z,8.10
2023-04-14T03:38:09.180Z,8.20
2023-04-14T03:40:41.217Z,8.40
2023-04-14T03:43:12.360Z,8.40
2023-04-14T03:45:44.246Z,8.30
2023-04-14T03:48:17.069Z,8.20
2023-04-14T03:50:51.880Z,8.10
2023-04-14T03:53:22.732Z,8.10
2023-04-14T03:55:52.938Z,8.10
2023-04-14T03:58:23.303Z,8.20
2023-04-14T04:00:54.728Z,8.30
2023-04-14T04:03:24.058Z,8.20
2023-04-14T04:05:54.462Z,8.10
2023-04-14T04:08:24.008Z,8.00
2023-04-14T04:10:53.257Z,8.00
2023-04-14T04:13:22.437Z,8.00
2023-04-14T04:15:52.297Z,8.00
2023-04-14T04:18:23.663Z,7.90
2023-04-14T04:20:53.509Z,7.90
2023-04-14T04:23:23.905Z,7.90
2023-04-14T04:25:52.891Z,7.90
2023-04-14T04:28:37.433Z,8.00
2023-04-14T04:31:06.961Z,7.90
2023-04-14T04:33:36.540Z,8.00
2023-04-14T04:36:07.844Z,8.00
2023-04-14T04:38:42.820Z,7.90
2023-04-14T04:41:22.028Z,7.80
2023-04-14T04:43:50.894Z,7.80
2023-04-14T04:46:43.681Z,7.80
2023-04-14T04:49:12.032Z,7.80
2023-04-14T04:51:41.396Z,7.80
2023-04-14T04:54:09.426Z,7.80
2023-04-14T04:56:37.431Z,7.90
2023-04-14T04:59:05.799Z,8.00
2023-04-14T05:01:33.931Z,8.10
2023-04-14T05:04:02.384Z,8.00
2023-04-14T05:06:30.487Z,8.00
2023-04-14T05:09:00.144Z,8.10
2023-04-14T05:11:28.457Z,8.10
2023-04-14T05:13:56.547Z,8.10
2023-04-14T05:16:25.574Z,8.00
2023-04-14T05:18:53.676Z,8.20
2023-04-14T05:21:21.694Z,8.20
2023-04-14T05:23:49.885Z,8.10
2023-04-14T05:26:44.521Z,8.00
2023-04-14T05:29:07.410Z,8.10
2023-04-14T05:31:35.544Z,8.10
2023-04-14T05:34:03.761Z,8.10
2023-04-14T05:36:32.216Z,8.10
2023-04-14T05:39:00.281Z,8.10
2023-04-14T05:41:29.657Z,8.20
2023-04-14T05:43:57.732Z,8.20
2023-04-14T05:46:26.258Z,8.10
2023-04-14T05:48:54.307Z,8.20
2023-04-14T05:51:22.344Z,8.30
2023-04-14T05:53:50.338Z,8.30
2023-04-14T05:56:18.371Z,8.30
2023-04-14T05:58:47.777Z,8.30
2023-04-14T06:01:16.457Z,8.40
2023-04-14T06:03:44.779Z,8.40
2023-04-14T06:06:12.996Z,8.40
2023-04-14T06:08:41.368Z,8.40
2023-04-14T06:11:09.392Z,8.50
2023-04-14T06:13:37.619Z,8.60
2023-04-14T06:16:07.873Z,8.50
2023-04-14T06:18:36.197Z,8.60
2023-04-14T06:21:04.904Z,8.70
2023-04-14T06:23:33.133Z,8.70
2023-04-14T06:26:01.447Z,8.70
2023-04-14T06:28:29.565Z,8.70
2023-04-14T06:30:57.690Z,8.80
2023-04-14T06:33:27.127Z,8.80
2023-04-14T06:35:55.812Z,8.90
2023-04-14T06:38:25.079Z,8.90
2023-04-14T06:40:53.468Z,9.00
2023-04-14T06:43:21.531Z,9.00
2023-04-14T06:45:51.275Z,9.00
2023-04-14T06:48:19.413Z,9.00
2023-04-14T06:50:55.540Z,9.20
2023-04-14T06:53:23.787Z,9.20
2023-04-14T06:55:58.952Z,9.10
2023-04-14T06:58:27.792Z,9.20
2023-04-14T07:00:57.119Z,9.10
2023-04-14T07:03:26.020Z,9.20
2023-04-14T07:05:55.956Z,9.20
2023-04-14T07:08:24.167Z,9.20
2023-04-14T07:11:00.706Z,9.20
2023-04-14T07:13:29.005Z,9.10
2023-04-14T07:15:57.378Z,9.20
2023-04-14T07:18:25.705Z,9.30
2023-04-14T07:20:55.117Z,9.30
2023-04-14T07:23:23.605Z,9.30
2023-04-14T07:25:52.679Z,9.40
2023-04-14T07:28:21.361Z,9.40
2023-04-14T07:30:49.554Z,9.30
2023-04-14T07:33:18.686Z,9.30
2023-04-14T07:36:00.567Z,9.30
2023-04-14T07:38:32.219Z,9.40
2023-04-14T07:41:01.266Z,9.60
2023-04-14T07:43:34.725Z,9.60
2023-04-14T07:46:04.376Z,9.70
2023-04-14T07:48:33.227Z,9.70
2023-04-14T07:51:01.641Z,9.90
2023-04-14T07:53:31.989Z,9.70
2023-04-14T07:56:00.736Z,9.80
2023-04-14T07:58:29.710Z,9.80
2023-04-14T08:00:58.239Z,9.90
2023-04-14T08:03:26.526Z,10.00
2023-04-14T08:05:54.726Z,10.00
2023-04-14T08:08:23.125Z,10.00
2023-04-14T08:10:52.732Z,10.10
2023-04-14T08:13:20.753Z,10.10
2023-04-14T08:15:48.829Z,10.20
2023-04-14T08:18:16.979Z,10.30
2023-04-14T08:20:45.305Z,10.40
2023-04-14T08:23:13.328Z,10.40
2023-04-14T08:25:42.217Z,10.50
2023-04-14T08:28:12.314Z,10.50
2023-04-14T08:30:40.393Z,10.50
2023-04-14T08:33:08.509Z,10.60
2023-04-14T08:35:41.590Z,10.60
2023-04-14T08:38:10.756Z,10.70
2023-04-14T08:40:40.757Z,10.80
2023-04-14T08:43:09.241Z,10.80
2023-04-14T08:45:38.613Z,10.90
2023-04-14T08:48:06.879Z,10.90
2023-04-14T08:50:38.736Z,11.00
2023-04-14T08:53:10.657Z,11.00
2023-04-14T08:55:42.234Z,11.10
2023-04-14T08:58:11.578Z,11.20
2023-04-14T09:00:41.246Z,11.20
2023-04-14T09:03:10.075Z,11.20
2023-04-14T09:05:38.610Z,11.30
2023-04-14T09:08:06.829Z,11.30
2023-04-14T09:10:36.750Z,11.30
2023-04-14T09:13:06.550Z,11.30
2023-04-14T09:15:34.836Z,11.30
2023-04-14T09:18:04.602Z,11.30
2023-04-14T09:20:39.542Z,11.40
2023-04-14T09:23:10.437Z,11.40
2023-04-14T09:25:39.879Z,11.40
2023-04-14T09:28:08.316Z,11.50
2023-04-14T09:30:36.446Z,11.50
2023-04-14T09:33:18.857Z,11.50
2023-04-14T09:35:48.485Z,11.60
2023-04-14T09:38:17.736Z,11.60
2023-04-14T09:40:45.906Z,11.60
2023-04-14T09:43:36.639Z,11.60
2023-04-14T09:46:06.922Z,11.70
2023-04-14T09:48:37.481Z,11.70
2023-04-14T09:51:09.786Z,11.80
2023-04-14T09:53:39.187Z,11.80
2023-04-14T09:56:09.633Z,11.80
2023-04-14T09:58:39.095Z,11.80
2023-04-14T10:01:13.340Z,11.90
2023-04-14T10:03:45.496Z,11.90
2023-04-14T10:06:18.201Z,11.90
2023-04-14T10:08:48.575Z,12.00
2023-04-14T10:11:20.768Z,12.00
2023-04-14T10:13:50.527Z,12.00
2023-04-14T10:16:19.094Z,12.00
2023-04-14T10:18:48.730Z,12.00
2023-04-14T10:21:17.884Z,12.10
2023-04-14T10:23:46.281Z,12.20
2023-04-14T10:26:15.711Z,12.20
2023-04-14T10:28:45.611Z,12.30
2023-04-14T10:31:16.675Z,12.20
2023-04-14T10:33:45.418Z,12.30
2023-04-14T10:36:24.323Z,12.40
2023-04-14T10:39:00.762Z,12.40
2023-04-14T10:41:29.553Z,12.40
2023-04-14T10:43:57.609Z,12.50
2023-04-14T10:46:26.203Z,12.50
2023-04-14T10:48:55.159Z,12.60
2023-04-14T10:51:35.837Z,12.60
2023-04-14T10:54:04.646Z,12.70
2023-04-14T10:56:32.876Z,12.70
2023-04-14T10:59:01.121Z,12.70
2023-04-14T11:01:31.759Z,12.80
2023-04-14T11:04:17.289Z,12.90
2023-04-14T11:06:58.818Z,12.90
2023-04-14T11:09:28.619Z,12.90
2023-04-14T11:11:58.085Z,13.00
2023-04-14T11:14:31.400Z,13.10
2023-04-14T11:17:03.671Z,13.10
2023-04-14T11:19:33.699Z,13.10
2023-04-14T11:22:03.101Z,13.20
2023-04-14T11:24:32.208Z,13.30
2023-04-14T11:27:00.553Z,13.30
2023-04-14T11:29:28.600Z,13.30
2023-04-14T11:32:04.042Z,13.40
2023-04-14T11:34:32.903Z,13.40
2023-04-14T11:37:05.006Z,13.30
2023-04-14T11:39:35.498Z,13.40
2023-04-14T11:42:05.098Z,13.50
2023-04-14T11:44:33.761Z,13.50
2023-04-14T11:47:02.441Z,13.60
2023-04-14T11:49:34.518Z,13.60
2023-04-14T11:52:07.789Z,13.60
2023-04-14T11:54:37.143Z,13.60
2023-04-14T11:57:10.932Z,13.70
2023-04-14T11:59:43.534Z,13.70
2023-04-14T12:02:17.539Z,13.70
2023-04-14T12:04:46.751Z,13.70
2023-04-14T12:07:18.384Z,13.70
2023-04-14T12:09:48.866Z,13.70
2023-04-14T12:12:18.566Z,13.60
2023-04-14T12:14:48.910Z,13.60
2023-04-14T12:17:20.133Z,13.60
2023-04-14T12:19:48.832Z,13.60
2023-04-14T12:22:24.776Z,13.60
2023-04-14T12:24:52.826Z,13.50
2023-04-14T12:27:22.826Z,13.60
2023-04-14T12:29:51.189Z,13.60
2023-04-14T12:32:21.334Z,13.60
2023-04-14T12:34:57.740Z,13.50
2023-04-14T12:37:28.497Z,13.40
2023-04-14T12:39:59.409Z,13.50
2023-04-14T12:42:28.980Z,13.50
2023-04-14T12:44:58.922Z,13.50
2023-04-14T12:47:30.991Z,13.50
2023-04-14T12:50:00.420Z,13.60
2023-04-14T12:52:37.164Z,13.50
2023-04-14T12:55:06.675Z,13.50
2023-04-14T12:57:35.808Z,13.50
2023-04-14T13:00:08.945Z,13.50
2023-04-14T13:02:37.320Z,13.50
2023-04-14T13:05:06.112Z,13.50
2023-04-14T13:07:34.160Z,13.60
2023-04-14T13:10:03.566Z,13.60
2023-04-14T13:12:31.677Z,13.60
2023-04-14T13:15:00.311Z,13.60
2023-04-14T13:17:28.884Z,13.60
2023-04-14T13:19:57.195Z,13.60
2023-04-14T13:22:25.775Z,13.60
2023-04-14T13:24:53.919Z,13.60
2023-04-14T13:27:23.320Z,13.60
2023-04-14T13:29:51.562Z,13.60
2023-04-14T13:32:19.693Z,13.60
2023-04-14T13:34:48.096Z,13.60
2023-04-14T13:37:17.918Z,13.60
2023-04-14T13:39:46.194Z,13.60
2023-04-14T13:42:15.125Z,13.60
2023-04-14T13:44:44.635Z,13.60
2023-04-14T13:47:12.691Z,13.60
2023-04-14T13:49:40.788Z,13.50
2023-04-14T13:52:09.509Z,13.50
2023-04-14T13:54:37.573Z,13.50
2023-04-14T13:57:05.959Z,13.50
2023-04-14T13:59:34.090Z,13.60
2023-04-14T14:02:04.247Z,13.60
2023-04-14T14:04:36.843Z,13.60
2023-04-14T14:07:05.057Z,13.60
2023-04-14T14:09:33.111Z,13.60
2023-04-14T14:12:01.461Z,13.60
2023-04-14T14:14:29.529Z,13.60
2023-04-14T14:16:57.663Z,13.60
2023-04-14T14:19:27.147Z,13.60
2023-04-14T14:21:55.204Z,13.60
2023-04-14T14:24:23.406Z,13.60
2023-04-14T14:26:51.501Z,13.60
2023-04-14T14:29:19.546Z,13.60
2023-04-14T14:31:47.678Z,13.60
2023-04-14T14:34:15.969Z,13.60
2023-04-14T14:36:46.142Z,13.60
2023-04-14T14:39:14.299Z,13.70
2023-04-14T14:41:42.506Z,13.60
2023-04-14T14:44:10.531Z,13.70
2023-04-14T14:46:38.686Z,13.70
2023-04-14T14:49:06.746Z,13.70
2023-04-14T14:51:35.016Z,13.70
2023-04-14T14:54:09.787Z,13.70
2023-04-14T14:56:38.744Z,13.70
2023-04-14T14:59:08.403Z,13.70
2023-04-14T15:01:36.694Z,13.70
2023-04-14T15:04:06.358Z,13.70
2023-04-14T15:06:35.925Z,13.70
2023-04-14T15:09:06.433Z,13.70
2023-04-14T15:11:36.375Z,13.70
2023-04-14T15:14:04.750Z,13.70
2023-04-14T15:16:33.321Z,13.70
2023-04-14T15:19:01.441Z,13.70
2023-04-14T15:21:29.604Z,13.70
2023-04-14T15:23:57.656Z,13.80
2023-04-14T15:26:27.219Z,13.80
2023-04-14T15:28:55.415Z,13.80
2023-04-14T15:31:23.483Z,13.70
2023-04-14T15:33:51.513Z,13.80
2023-04-14T15:36:19.578Z,13.90
2023-04-14T15:38:49.915Z,13.80
2023-04-14T15:41:17.975Z,13.80
2023-04-14T15:43:47.447Z,13.90
2023-04-14T15:46:15.932Z,13.80
2023-04-14T15:48:43.998Z,13.80
2023-04-14T15:51:12.105Z,13.80
2023-04-14T15:53:40.222Z,13.80
2023-04-14T15:56:08.335Z,13.80
2023-04-14T15:58:36.862Z,13.80
2023-04-14T16:01:09.044Z,13.70
2023-04-14T16:03:37.976Z,13.80
2023-04-14T16:06:07.457Z,13.80
2023-04-14T16:08:36.347Z,13.80
2023-04-14T16:11:04.928Z,13.80
2023-04-14T16:13:33.073Z,13.80
2023-04-14T16:16:01.192Z,13.80
2023-04-14T16:18:30.583Z,13.70
2023-04-14T16:20:58.590Z,13.70
2023-04-14T16:23:28.358Z,13.70
2023-04-14T16:25:57.273Z,13.70
2023-04-14T16:28:25.742Z,13.70
2023-04-14T16:30:55.163Z,13.60
2023-04-14T16:33:23.255Z,13.60
2023-04-14T16:35:52.721Z,13.60
2023-04-14T16:38:21.053Z,13.60
2023-04-14T16:40:56.361Z,13.60
2023-04-14T16:43:24.755Z,13.60
2023-04-14T16:45:53.394Z,13.60
2023-04-14T16:48:21.631Z,13.50
2023-04-14T16:50:49.706Z,13.50
2023-04-14T16:53:19.132Z,13.50
2023-04-14T16:55:47.195Z,13.50
2023-04-14T16:58:15.223Z,13.40
2023-04-14T17:00:43.275Z,13.40
2023-04-14T17:03:11.501Z,13.40
2023-04-14T17:05:39.684Z,13.40
2023-04-14T17:08:07.722Z,13.40
2023-04-14T17:10:38.622Z,13.40
2023-04-14T17:13:06.880Z,13.40
2023-04-14T17:15:34.939Z,13.40
2023-04-14T17:18:03.049Z,13.40
2023-04-14T17:20:31.809Z,13.30
2023-04-14T17:23:00.224Z,13.30
2023-04-14T17:25:28.557Z,13.30
2023-04-14T17:27:58.031Z,13.30
2023-04-14T17:30:27.162Z,13.30
2023-04-14T17:32:56.341Z,13.30
2023-04-14T17:35:25.049Z,13.20
2023-04-14T17:37:53.947Z,13.20
2023-04-14T17:40:22.219Z,13.20
2023-04-14T17:42:50.334Z,13.20
2023-04-14T17:45:23.105Z,13.20
2023-04-14T17:47:52.207Z,13.20
2023-04-14T17:50:21.065Z,13.20
2023-04-14T17:52:50.107Z,13.20
2023-04-14T17:55:19.082Z,13.10
2023-04-14T17:57:47.339Z,13.00
2023-04-14T18:00:16.883Z,13.00
2023-04-14T18:02:46.336Z,13.00
2023-04-14T18:05:14.338Z,12.90
2023-04-14T18:07:43.142Z,12.90
2023-04-14T18:10:12.052Z,12.90
2023-04-14T18:12:40.194Z,12.90
2023-04-14T18:15:11.942Z,12.90
2023-04-14T18:17:39.977Z,12.80
2023-04-14T18:20:11.660Z,12.70
2023-04-14T18:22:39.944Z,12.70
2023-04-14T18:25:09.059Z,12.60
2023-04-14T18:30:10.632Z,12.50
2023-04-14T18:32:38.649Z,12.50
2023-04-14T18:35:07.360Z,12.50
2023-04-14T18:37:37.288Z,12.50
2023-04-14T18:40:06.105Z,12.40
2023-04-14T18:42:35.879Z,12.30
2023-04-14T18:45:04.367Z,12.30
2023-04-14T18:47:33.168Z,12.20
2023-04-14T18:50:01.284Z,12.20
2023-04-14T18:52:29.303Z,12.10
2023-04-14T18:54:58.671Z,12.10
2023-04-14T18:57:28.960Z,12.10
2023-04-14T18:59:57.071Z,12.10
2023-04-14T19:02:25.964Z,12.10
2023-04-14T19:04:54.121Z,12.00
2023-04-14T19:07:22.254Z,12.00
2023-04-14T19:09:50.817Z,12.00
2023-04-14T19:12:28.088Z,11.90
2023-04-14T19:14:56.802Z,11.90
2023-04-14T19:17:24.999Z,11.80
2023-04-14T19:19:53.077Z,11.80
2023-04-14T19:22:21.140Z,11.70
2023-04-14T19:24:50.548Z,11.70
2023-04-14T19:27:20.086Z,11.70
2023-04-14T19:29:48.102Z,11.70
2023-04-14T19:32:16.511Z,11.60
2023-04-14T19:34:44.552Z,11.70
2023-04-14T19:37:13.490Z,11.70
2023-04-14T19:39:41.464Z,11.60
2023-04-14T19:42:09.463Z,11.60
2023-04-14T19:44:38.823Z,11.60
2023-04-14T19:47:07.122Z,11.50
2023-04-14T19:49:35.234Z,11.50
2023-04-14T19:52:03.686Z,11.50
2023-04-14T19:54:31.728Z,11.40
2023-04-14T19:57:00.263Z,11.30
2023-04-14T19:59:29.346Z,11.40
2023-04-14T20:02:00.789Z,11.40
2023-04-14T20:04:28.968Z,11.30
2023-04-14T20:06:57.023Z,11.30
2023-04-14T20:09:26.110Z,11.40
2023-04-14T20:11:54.593Z,11.40
2023-04-14T20:14:22.787Z,11.40
2023-04-14T20:16:51.375Z,11.40
2023-04-14T20:19:21.335Z,11.30
2023-04-14T20:21:49.333Z,11.40
2023-04-14T20:24:17.588Z,11.40
2023-04-14T20:26:46.536Z,11.40
2023-04-14T20:29:15.995Z,11.30
2023-04-14T20:31:44.244Z,11.30
2023-04-14T20:34:13.400Z,11.40
2023-04-14T20:36:44.815Z,11.40
2023-04-14T20:39:13.284Z,11.30
2023-04-14T20:41:41.287Z,11.40
2023-04-14T20:44:09.605Z,11.30
2023-04-14T20:46:37.671Z,11.30
2023-04-14T20:49:05.753Z,11.20
2023-04-14T20:51:34.006Z,11.30
2023-04-14T20:54:04.060Z,11.20
2023-04-14T20:56:33.861Z,11.10
2023-04-14T20:59:02.684Z,11.20
2023-04-14T21:01:31.360Z,11.10
2023-04-14T21:03:59.755Z,11.00
2023-04-14T21:06:28.234Z,11.10
2023-04-14T21:08:56.241Z,11.00
2023-04-14T21:11:25.567Z,11.10
2023-04-14T21:15:30.573Z,11.00
2023-04-14T21:16:41.691Z,11.00
2023-04-14T21:19:10.160Z,11.00
2023-04-14T21:21:38.134Z,10.90
2023-04-14T21:24:06.818Z,10.90
2023-04-14T21:26:36.831Z,10.90
2023-04-14T21:29:04.967Z,10.90
2023-04-14T21:31:33.020Z,10.90
2023-04-14T21:34:01.063Z,10.80
2023-04-14T21:36:29.239Z,10.80
2023-04-14T21:38:58.009Z,10.80
2023-04-14T21:41:26.174Z,10.70
2023-04-14T21:43:55.513Z,10.70
2023-04-14T21:46:23.630Z,10.70
2023-04-14T21:48:51.705Z,10.70
2023-04-14T21:51:19.756Z,10.80
2023-04-14T21:53:47.778Z,10.80
2023-04-14T21:56:16.050Z,10.80
2023-04-14T21:58:45.665Z,10.70
2023-04-14T22:01:15.103Z,10.70
2023-04-14T22:03:43.382Z,10.70
2023-04-14T22:06:11.615Z,10.70
2023-04-14T22:08:40.796Z,10.60
2023-04-14T22:11:08.984Z,10.60
2023-04-14T22:13:37.077Z,10.60
2023-04-14T22:16:05.573Z,10.40
2023-04-14T22:18:35.842Z,10.50
2023-04-14T22:21:04.716Z,10.50
2023-04-14T22:23:32.921Z,10.40
2023-04-14T22:26:00.978Z,10.40
2023-04-14T22:28:29.058Z,10.50
2023-04-14T22:30:57.136Z,10.60
2023-04-14T22:33:25.856Z,10.70
2023-04-14T22:35:55.203Z,10.70
2023-04-14T22:38:23.261Z,10.70
2023-04-14T22:40:52.694Z,10.70
2023-04-14T22:43:21.117Z,10.60
2023-04-14T22:45:49.355Z,10.60
2023-04-14T22:48:17.519Z,10.50
2023-04-14T22:50:46.037Z,10.60
2023-04-14T22:53:15.672Z,10.50
2023-04-14T22:55:44.287Z,10.50
2023-04-14T22:58:16.542Z,10.50
2023-04-14T23:00:45.313Z,10.60
2023-04-14T23:03:13.703Z,10.50
2023-04-14T23:05:41.873Z,10.50
2023-04-14T23:08:10.205Z,10.60
2023-04-14T23:10:39.588Z,10.50
2023-04-14T23:13:08.135Z,10.40
2023-04-14T23:15:36.348Z,10.40
2023-04-14T23:18:05.546Z,10.50
2023-04-14T23:20:33.603Z,10.50
2023-04-14T23:23:01.722Z,10.40
2023-04-14T23:25:30.130Z,10.40
2023-04-14T23:27:59.456Z,10.40
2023-04-14T23:30:27.589Z,10.40
2023-04-14T23:32:55.724Z,10.40
2023-04-14T23:35:23.781Z,10.40
2023-04-14T23:37:52.009Z,10.30
2023-04-14T23:40:20.645Z,10.30
2023-04-14T23:42:48.646Z,10.40
2023-04-14T23:45:18.190Z,10.40
2023-04-14T23:47:46.392Z,10.40
2023-04-14T23:50:14.403Z,10.40
2023-04-14T23:52:43.962Z,10.40
2023-04-14T23:55:12.124Z,10.40
2023-04-14T23:57:40.515Z,10.30
